Flight Track Log - Related Links

Times and Time Zones

All times are in EDT time to prevent confusion due to time zone crossing. See the N901QS flight status page for this flight to view local times or setup timezone preferences in your user account.

Time Position Orientation Groundspeed Altitude Reporting Facility
EDT Latitude Longitude Course Direction KTS MPH feet Rate Location/Type
Wed 07:11:46 PM 36.1944 -95.9022 262° West 168 193 1,500  Level Kansas City Center
Wed 07:12:28 PM 36.1922 -95.9517 267° West 213 245 4,200 3,517 Climbing Kansas City Center
Wed 07:13:13 PM 36.1864 -96.0044 262° West 230 265 6,600 3,500 Climbing Kansas City Center
Wed 07:13:28 PM 36.1806 -96.0361 257° West 263 303 7,700 1,258 Climbing Kansas City Center
Wed 07:14:15 PM 36.1722 -96.0944 260° West 258 297 7,900 110 Climbing Kansas City Center
Wed 07:15:17 PM 36.1589 -96.1858 260° West 267 307 7,900  Level Kansas City Center
Wed 07:16:19 PM 36.1458 -96.2733 260° West 261 300 7,900  Level Kansas City Center
Wed 07:17:00 PM 36.1403 -96.1709 262° West  Level FlightAware Approximate
Wed 07:17:21 PM 36.1308 -96.3761 260° West 255 293 7,900  Level Kansas City Center
Wed 07:18:23 PM 36.1167 -96.4647 259° West 261 300 8,000 48 Climbing Kansas City Center
Wed 07:19:25 PM 36.1039 -96.5558 260° West 266 306 8,000  Level Kansas City Center
Wed 07:20:27 PM 36.0892 -96.6475 259° West 269 310 8,000  Level Kansas City Center
Wed 07:21:29 PM 36.0739 -96.7450 259° West 273 314 8,000  Level Kansas City Center
Wed 07:22:31 PM 36.0603 -96.8369 260° West 273 314 8,000  Level Kansas City Center
Wed 07:23:33 PM 36.0461 -96.9294 259° West 275 316 8,000  Level Kansas City Center
Wed 07:24:35 PM 36.0311 -97.0181 258° West 268 308 8,000  Level Kansas City Center
Wed 07:25:37 PM 36.0153 -97.1233 259° West 263 303 8,000  Level Kansas City Center
Wed 07:26:39 PM 35.9644 -97.1778 221° Southwest 253 291 8,000  Level Kansas City Center
Wed 07:27:41 PM 35.9022 -97.2225 210° Southwest 258 297 8,000  Level Kansas City Center
Wed 07:28:43 PM 35.8394 -97.2686 211° Southwest 262 302 8,000  Level Kansas City Center
Wed 07:29:45 PM 35.7750 -97.3139 210° Southwest 266 306 8,000 -1,065 Level Kansas City Center
Wed 07:30:47 PM 35.6983 -97.3686 210° Southwest 266 306 5,800 -1,887 Descending Kansas City Center
Wed 07:31:49 PM 35.6333 -97.4153 210° Southwest 271 312 4,100 -1,174 Descending Kansas City Center
Wed 07:32:19 PM 35.5961 -97.4417 210° Southwest 273 314 4,000  Descending Fort Worth Center
Wed 07:33:31 PM 35.5125 -97.4800 200° South 256 295 4,100 -226 Climbing Fort Worth Center
Wed 07:34:32 PM 35.4458 -97.5028 196° South 241 277 3,500 -757 Descending Fort Worth Center
Wed 07:35:14 PM 35.4019 -97.5231 201° Southwest 241 277 2,800 -550 Descending Fort Worth Center
Wed 07:36:21 PM 35.3456 -97.5511 202° Southwest 176 203 2,500 -269 Descending Fort Worth Center

Login

Don't have an account? Register now (free) for customized features, flight alerts, and more!